sensor_id;sensor_type;location;lat;lon;timestamp;P1;durP1;ratioP1;P2;durP2;ratioP2
9972;SDS011;5027;53.560;10.062;2022-12-20T00:01:24;8.57;;;6.83;;
9972;SDS011;5027;53.560;10.062;2022-12-20T00:03:53;11.13;;;7.40;;
9972;SDS011;5027;53.560;10.062;2022-12-20T00:06:21;10.03;;;7.30;;
9972;SDS011;5027;53.560;10.062;2022-12-20T00:08:56;10.93;;;6.87;;
9972;SDS011;5027;53.560;10.062;2022-12-20T00:11:25;7.57;;;6.53;;
9972;SDS011;5027;53.560;10.062;2022-12-20T00:13:52;10.63;;;7.00;;
9972;SDS011;5027;53.560;10.062;2022-12-20T00:16:20;9.83;;;7.20;;
9972;SDS011;5027;53.560;10.062;2022-12-20T00:18:53;10.07;;;6.70;;
9972;SDS011;5027;53.560;10.062;2022-12-20T00:21:23;10.10;;;7.03;;
9972;SDS011;5027;53.560;10.062;2022-12-20T00:23:51;8.10;;;6.50;;
9972;SDS011;5027;53.560;10.062;2022-12-20T00:26:20;10.17;;;6.77;;
9972;SDS011;5027;53.560;10.062;2022-12-20T00:28:48;8.43;;;6.90;;
9972;SDS011;5027;53.560;10.062;2022-12-20T00:31:15;7.83;;;6.50;;
9972;SDS011;5027;53.560;10.062;2022-12-20T00:33:44;7.00;;;6.30;;
9972;SDS011;5027;53.560;10.062;2022-12-20T00:36:12;9.77;;;6.60;;
9972;SDS011;5027;53.560;10.062;2022-12-20T00:38:39;9.33;;;6.93;;
9972;SDS011;5027;53.560;10.062;2022-12-20T00:41:08;7.73;;;6.47;;
9972;SDS011;5027;53.560;10.062;2022-12-20T00:43:39;8.17;;;6.70;;
9972;SDS011;5027;53.560;10.062;2022-12-20T00:46:08;8.83;;;6.50;;
9972;SDS011;5027;53.560;10.062;2022-12-20T00:48:36;7.67;;;6.27;;
9972;SDS011;5027;53.560;10.062;2022-12-20T00:51:05;10.43;;;7.50;;
9972;SDS011;5027;53.560;10.062;2022-12-20T00:53:36;9.80;;;7.13;;
9972;SDS011;5027;53.560;10.062;2022-12-20T00:56:05;7.40;;;6.60;;
9972;SDS011;5027;53.560;10.062;2022-12-20T00:58:36;9.07;;;6.50;;
9972;SDS011;5027;53.560;10.062;2022-12-20T01:01:05;8.63;;;6.73;;
9972;SDS011;5027;53.560;10.062;2022-12-20T01:03:32;8.93;;;6.87;;
9972;SDS011;5027;53.560;10.062;2022-12-20T01:06:01;9.13;;;6.97;;
9972;SDS011;5027;53.560;10.062;2022-12-20T01:08:28;10.13;;;7.20;;
9972;SDS011;5027;53.560;10.062;2022-12-20T01:11:02;7.63;;;6.80;;
9972;SDS011;5027;53.560;10.062;2022-12-20T01:13:49;12.33;;;6.73;;
9972;SDS011;5027;53.560;10.062;2022-12-20T01:16:20;8.57;;;7.27;;
9972;SDS011;5027;53.560;10.062;2022-12-20T01:18:49;7.87;;;6.73;;
9972;SDS011;5027;53.560;10.062;2022-12-20T01:21:20;13.47;;;7.10;;
9972;SDS011;5027;53.560;10.062;2022-12-20T01:23:51;8.07;;;6.63;;
9972;SDS011;5027;53.560;10.062;2022-12-20T01:26:19;9.83;;;7.20;;
9972;SDS011;5027;53.560;10.062;2022-12-20T01:28:50;9.10;;;7.20;;
9972;SDS011;5027;53.560;10.062;2022-12-20T01:31:19;9.93;;;7.20;;
9972;SDS011;5027;53.560;10.062;2022-12-20T01:33:47;9.00;;;7.10;;
9972;SDS011;5027;53.560;10.062;2022-12-20T01:36:17;7.87;;;6.60;;
9972;SDS011;5027;53.560;10.062;2022-12-20T01:38:55;11.37;;;7.37;;
9972;SDS011;5027;53.560;10.062;2022-12-20T01:41:31;9.53;;;6.40;;
9972;SDS011;5027;53.560;10.062;2022-12-20T01:44:00;8.27;;;6.60;;
9972;SDS011;5027;53.560;10.062;2022-12-20T01:46:47;9.03;;;6.97;;
9972;SDS011;5027;53.560;10.062;2022-12-20T01:49:16;9.07;;;6.63;;
9972;SDS011;5027;53.560;10.062;2022-12-20T01:51:48;11.73;;;9.23;;
9972;SDS011;5027;53.560;10.062;2022-12-20T01:54:23;7.83;;;5.80;;
9972;SDS011;5027;53.560;10.062;2022-12-20T01:56:55;7.17;;;6.47;;
9972;SDS011;5027;53.560;10.062;2022-12-20T01:59:25;10.03;;;6.97;;
9972;SDS011;5027;53.560;10.062;2022-12-20T02:01:53;9.07;;;6.47;;
9972;SDS011;5027;53.560;10.062;2022-12-20T02:04:27;9.47;;;6.60;;
9972;SDS011;5027;53.560;10.062;2022-12-20T02:06:53;8.17;;;6.60;;
9972;SDS011;5027;53.560;10.062;2022-12-20T02:09:20;6.87;;;6.00;;
9972;SDS011;5027;53.560;10.062;2022-12-20T02:12:07;8.13;;;6.30;;
9972;SDS011;5027;53.560;10.062;2022-12-20T02:14:43;7.83;;;6.07;;
9972;SDS011;5027;53.560;10.062;2022-12-20T02:17:30;8.47;;;6.10;;
9972;SDS011;5027;53.560;10.062;2022-12-20T02:20:15;9.50;;;5.80;;
9972;SDS011;5027;53.560;10.062;2022-12-20T02:23:11;6.50;;;5.90;;
9972;SDS011;5027;53.560;10.062;2022-12-20T02:26:20;9.10;;;5.87;;
9972;SDS011;5027;53.560;10.062;2022-12-20T02:29:32;8.10;;;6.53;;
9972;SDS011;5027;53.560;10.062;2022-12-20T02:32:16;7.97;;;5.67;;
9972;SDS011;5027;53.560;10.062;2022-12-20T02:34:48;8.37;;;5.90;;
9972;SDS011;5027;53.560;10.062;2022-12-20T02:37:16;7.67;;;6.13;;
9972;SDS011;5027;53.560;10.062;2022-12-20T02:39:43;8.40;;;6.17;;
9972;SDS011;5027;53.560;10.062;2022-12-20T02:42:13;6.60;;;5.63;;
9972;SDS011;5027;53.560;10.062;2022-12-20T02:44:44;6.97;;;5.50;;
9972;SDS011;5027;53.560;10.062;2022-12-20T02:47:38;7.53;;;5.80;;
9972;SDS011;5027;53.560;10.062;2022-12-20T02:50:07;8.37;;;6.03;;
9972;SDS011;5027;53.560;10.062;2022-12-20T02:52:36;8.70;;;5.63;;
9972;SDS011;5027;53.560;10.062;2022-12-20T02:55:07;9.47;;;5.80;;
9972;SDS011;5027;53.560;10.062;2022-12-20T02:57:47;7.87;;;5.53;;
9972;SDS011;5027;53.560;10.062;2022-12-20T03:00:25;7.57;;;5.70;;
9972;SDS011;5027;53.560;10.062;2022-12-20T03:02:56;7.10;;;5.10;;
9972;SDS011;5027;53.560;10.062;2022-12-20T03:05:43;6.57;;;4.93;;
9972;SDS011;5027;53.560;10.062;2022-12-20T03:08:17;6.50;;;5.27;;
9972;SDS011;5027;53.560;10.062;2022-12-20T03:10:44;6.33;;;4.97;;
9972;SDS011;5027;53.560;10.062;2022-12-20T03:13:17;6.00;;;4.93;;
9972;SDS011;5027;53.560;10.062;2022-12-20T03:15:50;6.60;;;5.17;;
9972;SDS011;5027;53.560;10.062;2022-12-20T03:18:16;5.83;;;4.63;;
9972;SDS011;5027;53.560;10.062;2022-12-20T03:20:43;5.63;;;5.07;;
9972;SDS011;5027;53.560;10.062;2022-12-20T03:23:10;10.03;;;5.20;;
9972;SDS011;5027;53.560;10.062;2022-12-20T03:25:37;6.03;;;5.17;;
9972;SDS011;5027;53.560;10.062;2022-12-20T03:28:05;6.03;;;5.43;;
9972;SDS011;5027;53.560;10.062;2022-12-20T03:30:31;7.60;;;5.33;;
9972;SDS011;5027;53.560;10.062;2022-12-20T03:32:58;7.03;;;5.17;;
9972;SDS011;5027;53.560;10.062;2022-12-20T03:35:25;8.23;;;5.50;;
9972;SDS011;5027;53.560;10.062;2022-12-20T03:37:52;8.73;;;5.40;;
9972;SDS011;5027;53.560;10.062;2022-12-20T03:40:18;5.90;;;5.13;;
9972;SDS011;5027;53.560;10.062;2022-12-20T03:42:45;6.10;;;5.23;;
9972;SDS011;5027;53.560;10.062;2022-12-20T03:45:12;8.20;;;5.40;;
9972;SDS011;5027;53.560;10.062;2022-12-20T03:47:38;6.67;;;4.90;;
9972;SDS011;5027;53.560;10.062;2022-12-20T03:50:06;5.50;;;4.97;;
9972;SDS011;5027;53.560;10.062;2022-12-20T03:52:34;5.97;;;4.70;;
9972;SDS011;5027;53.560;10.062;2022-12-20T03:55:01;7.83;;;5.43;;
9972;SDS011;5027;53.560;10.062;2022-12-20T03:57:36;5.37;;;4.70;;
9972;SDS011;5027;53.560;10.062;2022-12-20T04:00:05;9.23;;;4.90;;
9972;SDS011;5027;53.560;10.062;2022-12-20T04:02:39;6.10;;;5.13;;
9972;SDS011;5027;53.560;10.062;2022-12-20T04:05:09;8.17;;;5.00;;
9972;SDS011;5027;53.560;10.062;2022-12-20T04:07:36;5.90;;;5.10;;
9972;SDS011;5027;53.560;10.062;2022-12-20T04:10:03;7.53;;;5.00;;
9972;SDS011;5027;53.560;10.062;2022-12-20T04:12:31;6.87;;;5.07;;
9972;SDS011;5027;53.560;10.062;2022-12-20T04:14:58;5.43;;;4.60;;
9972;SDS011;5027;53.560;10.062;2022-12-20T04:17:26;6.60;;;4.67;;
9972;SDS011;5027;53.560;10.062;2022-12-20T04:19:54;6.87;;;4.93;;
9972;SDS011;5027;53.560;10.062;2022-12-20T04:22:21;5.37;;;4.83;;
9972;SDS011;5027;53.560;10.062;2022-12-20T04:24:54;7.93;;;5.37;;
9972;SDS011;5027;53.560;10.062;2022-12-20T04:27:24;6.07;;;4.97;;
9972;SDS011;5027;53.560;10.062;2022-12-20T04:29:53;6.80;;;5.23;;
9972;SDS011;5027;53.560;10.062;2022-12-20T04:32:20;7.33;;;5.23;;
9972;SDS011;5027;53.560;10.062;2022-12-20T04:34:48;7.20;;;5.23;;
9972;SDS011;5027;53.560;10.062;2022-12-20T04:37:15;8.37;;;5.53;;
9972;SDS011;5027;53.560;10.062;2022-12-20T04:39:49;7.93;;;5.67;;
9972;SDS011;5027;53.560;10.062;2022-12-20T04:42:27;8.87;;;6.30;;
9972;SDS011;5027;53.560;10.062;2022-12-20T04:44:55;7.93;;;5.47;;
9972;SDS011;5027;53.560;10.062;2022-12-20T04:47:25;9.57;;;5.83;;
9972;SDS011;5027;53.560;10.062;2022-12-20T04:49:53;6.10;;;5.50;;
9972;SDS011;5027;53.560;10.062;2022-12-20T04:52:20;7.50;;;6.27;;
9972;SDS011;5027;53.560;10.062;2022-12-20T04:55:12;8.73;;;5.53;;
9972;SDS011;5027;53.560;10.062;2022-12-20T04:57:39;8.50;;;5.80;;
9972;SDS011;5027;53.560;10.062;2022-12-20T05:00:06;7.77;;;5.70;;
9972;SDS011;5027;53.560;10.062;2022-12-20T05:02:36;9.27;;;6.47;;
9972;SDS011;5027;53.560;10.062;2022-12-20T05:05:08;10.20;;;6.40;;
9972;SDS011;5027;53.560;10.062;2022-12-20T05:07:41;7.97;;;5.93;;
9972;SDS011;5027;53.560;10.062;2022-12-20T05:10:08;7.23;;;5.43;;
9972;SDS011;5027;53.560;10.062;2022-12-20T05:12:36;9.33;;;6.20;;
9972;SDS011;5027;53.560;10.062;2022-12-20T05:15:04;7.17;;;5.73;;
9972;SDS011;5027;53.560;10.062;2022-12-20T05:17:32;11.33;;;5.53;;
9972;SDS011;5027;53.560;10.062;2022-12-20T05:19:59;11.13;;;6.37;;
9972;SDS011;5027;53.560;10.062;2022-12-20T05:22:29;8.27;;;6.17;;
9972;SDS011;5027;53.560;10.062;2022-12-20T05:25:14;10.27;;;6.60;;
9972;SDS011;5027;53.560;10.062;2022-12-20T05:28:03;10.77;;;6.23;;
9972;SDS011;5027;53.560;10.062;2022-12-20T05:30:34;9.37;;;5.73;;
9972;SDS011;5027;53.560;10.062;2022-12-20T05:33:01;8.37;;;6.43;;
9972;SDS011;5027;53.560;10.062;2022-12-20T05:35:28;9.50;;;6.17;;
9972;SDS011;5027;53.560;10.062;2022-12-20T05:38:02;9.60;;;6.60;;
9972;SDS011;5027;53.560;10.062;2022-12-20T05:40:30;12.20;;;7.70;;
9972;SDS011;5027;53.560;10.062;2022-12-20T05:42:57;9.37;;;6.57;;
9972;SDS011;5027;53.560;10.062;2022-12-20T05:45:33;8.33;;;7.00;;
9972;SDS011;5027;53.560;10.062;2022-12-20T05:48:05;11.63;;;6.53;;
9972;SDS011;5027;53.560;10.062;2022-12-20T05:50:36;8.80;;;6.50;;
9972;SDS011;5027;53.560;10.062;2022-12-20T05:53:21;8.67;;;6.40;;
9972;SDS011;5027;53.560;10.062;2022-12-20T05:55:52;7.77;;;6.97;;
9972;SDS011;5027;53.560;10.062;2022-12-20T05:58:24;11.90;;;6.50;;
9972;SDS011;5027;53.560;10.062;2022-12-20T06:00:56;9.97;;;6.70;;
9972;SDS011;5027;53.560;10.062;2022-12-20T06:03:25;10.40;;;6.50;;
9972;SDS011;5027;53.560;10.062;2022-12-20T06:05:53;12.23;;;6.90;;
9972;SDS011;5027;53.560;10.062;2022-12-20T06:08:25;9.33;;;6.47;;
9972;SDS011;5027;53.560;10.062;2022-12-20T06:10:53;10.20;;;6.90;;
9972;SDS011;5027;53.560;10.062;2022-12-20T06:13:22;8.87;;;6.70;;
9972;SDS011;5027;53.560;10.062;2022-12-20T06:15:51;8.80;;;6.63;;
9972;SDS011;5027;53.560;10.062;2022-12-20T06:18:19;9.90;;;6.20;;
9972;SDS011;5027;53.560;10.062;2022-12-20T06:20:50;6.97;;;6.13;;
9972;SDS011;5027;53.560;10.062;2022-12-20T06:23:20;11.57;;;6.37;;
9972;SDS011;5027;53.560;10.062;2022-12-20T06:25:57;9.87;;;6.57;;
9972;SDS011;5027;53.560;10.062;2022-12-20T06:28:28;8.27;;;6.07;;
9972;SDS011;5027;53.560;10.062;2022-12-20T06:30:56;8.83;;;6.27;;
9972;SDS011;5027;53.560;10.062;2022-12-20T06:33:34;10.27;;;6.33;;
9972;SDS011;5027;53.560;10.062;2022-12-20T06:36:02;8.70;;;5.90;;
9972;SDS011;5027;53.560;10.062;2022-12-20T06:38:29;8.47;;;6.27;;
9972;SDS011;5027;53.560;10.062;2022-12-20T06:40:55;9.10;;;5.73;;
9972;SDS011;5027;53.560;10.062;2022-12-20T06:43:22;8.03;;;6.80;;
9972;SDS011;5027;53.560;10.062;2022-12-20T06:45:49;8.40;;;6.60;;
9972;SDS011;5027;53.560;10.062;2022-12-20T06:48:16;10.40;;;6.70;;
9972;SDS011;5027;53.560;10.062;2022-12-20T06:50:42;8.20;;;6.93;;
9972;SDS011;5027;53.560;10.062;2022-12-20T06:53:09;8.87;;;7.27;;
9972;SDS011;5027;53.560;10.062;2022-12-20T06:55:37;8.47;;;6.80;;
9972;SDS011;5027;53.560;10.062;2022-12-20T06:58:04;11.57;;;7.33;;
9972;SDS011;5027;53.560;10.062;2022-12-20T07:00:33;10.03;;;6.60;;
9972;SDS011;5027;53.560;10.062;2022-12-20T07:02:59;11.23;;;7.20;;
9972;SDS011;5027;53.560;10.062;2022-12-20T07:05:26;8.90;;;6.67;;
9972;SDS011;5027;53.560;10.062;2022-12-20T07:07:53;8.90;;;7.17;;
9972;SDS011;5027;53.560;10.062;2022-12-20T07:10:20;8.17;;;7.00;;
9972;SDS011;5027;53.560;10.062;2022-12-20T07:12:46;8.70;;;6.67;;
9972;SDS011;5027;53.560;10.062;2022-12-20T07:15:14;10.93;;;8.10;;
9972;SDS011;5027;53.560;10.062;2022-12-20T07:17:41;10.30;;;7.40;;
9972;SDS011;5027;53.560;10.062;2022-12-20T07:20:08;11.33;;;7.67;;
9972;SDS011;5027;53.560;10.062;2022-12-20T07:22:39;9.87;;;7.20;;
9972;SDS011;5027;53.560;10.062;2022-12-20T07:25:06;11.33;;;7.77;;
9972;SDS011;5027;53.560;10.062;2022-12-20T07:27:33;8.87;;;7.70;;
9972;SDS011;5027;53.560;10.062;2022-12-20T07:29:59;8.17;;;7.33;;
9972;SDS011;5027;53.560;10.062;2022-12-20T07:32:26;8.40;;;7.33;;
9972;SDS011;5027;53.560;10.062;2022-12-20T07:34:53;8.47;;;7.23;;
9972;SDS011;5027;53.560;10.062;2022-12-20T07:37:19;8.23;;;7.43;;
9972;SDS011;5027;53.560;10.062;2022-12-20T07:39:46;12.43;;;8.53;;
9972;SDS011;5027;53.560;10.062;2022-12-20T07:42:12;9.47;;;8.40;;
9972;SDS011;5027;53.560;10.062;2022-12-20T07:44:41;9.33;;;7.83;;
9972;SDS011;5027;53.560;10.062;2022-12-20T07:47:08;9.40;;;7.63;;
9972;SDS011;5027;53.560;10.062;2022-12-20T07:49:35;9.50;;;8.23;;
9972;SDS011;5027;53.560;10.062;2022-12-20T07:52:02;11.97;;;9.03;;
9972;SDS011;5027;53.560;10.062;2022-12-20T07:54:32;12.27;;;8.57;;
9972;SDS011;5027;53.560;10.062;2022-12-20T07:57:05;11.00;;;8.67;;
9972;SDS011;5027;53.560;10.062;2022-12-20T07:59:38;12.87;;;8.13;;
9972;SDS011;5027;53.560;10.062;2022-12-20T08:02:07;11.47;;;8.97;;
9972;SDS011;5027;53.560;10.062;2022-12-20T08:04:39;9.47;;;8.50;;
9972;SDS011;5027;53.560;10.062;2022-12-20T08:07:06;11.50;;;8.47;;
9972;SDS011;5027;53.560;10.062;2022-12-20T08:09:35;11.20;;;8.40;;
9972;SDS011;5027;53.560;10.062;2022-12-20T08:12:06;12.03;;;8.50;;
9972;SDS011;5027;53.560;10.062;2022-12-20T08:14:35;10.17;;;8.23;;
9972;SDS011;5027;53.560;10.062;2022-12-20T08:17:03;11.70;;;8.73;;
9972;SDS011;5027;53.560;10.062;2022-12-20T08:19:30;10.87;;;8.87;;
9972;SDS011;5027;53.560;10.062;2022-12-20T08:21:58;10.17;;;8.93;;
9972;SDS011;5027;53.560;10.062;2022-12-20T08:24:25;9.80;;;8.53;;
9972;SDS011;5027;53.560;10.062;2022-12-20T08:26:51;11.53;;;8.17;;
9972;SDS011;5027;53.560;10.062;2022-12-20T08:29:18;11.17;;;7.97;;
9972;SDS011;5027;53.560;10.062;2022-12-20T08:31:45;13.33;;;7.90;;
9972;SDS011;5027;53.560;10.062;2022-12-20T08:34:16;9.73;;;8.03;;
9972;SDS011;5027;53.560;10.062;2022-12-20T08:36:43;9.23;;;8.17;;
9972;SDS011;5027;53.560;10.062;2022-12-20T08:39:09;9.67;;;8.50;;
9972;SDS011;5027;53.560;10.062;2022-12-20T08:41:36;14.57;;;11.57;;
9972;SDS011;5027;53.560;10.062;2022-12-20T08:44:04;14.60;;;8.60;;
9972;SDS011;5027;53.560;10.062;2022-12-20T08:46:31;11.37;;;8.70;;
9972;SDS011;5027;53.560;10.062;2022-12-20T08:48:58;10.47;;;8.60;;
9972;SDS011;5027;53.560;10.062;2022-12-20T08:51:25;12.33;;;8.57;;
9972;SDS011;5027;53.560;10.062;2022-12-20T08:53:52;12.83;;;8.80;;
9972;SDS011;5027;53.560;10.062;2022-12-20T08:56:19;8.80;;;7.90;;
9972;SDS011;5027;53.560;10.062;2022-12-20T08:58:46;11.40;;;8.57;;
9972;SDS011;5027;53.560;10.062;2022-12-20T09:01:14;11.30;;;8.33;;
9972;SDS011;5027;53.560;10.062;2022-12-20T09:03:42;11.83;;;8.27;;
9972;SDS011;5027;53.560;10.062;2022-12-20T09:06:14;9.63;;;7.93;;
9972;SDS011;5027;53.560;10.062;2022-12-20T09:08:42;10.77;;;7.90;;
9972;SDS011;5027;53.560;10.062;2022-12-20T09:11:10;10.47;;;8.33;;
9972;SDS011;5027;53.560;10.062;2022-12-20T09:13:43;9.97;;;8.40;;
9972;SDS011;5027;53.560;10.062;2022-12-20T09:16:12;10.07;;;8.13;;
9972;SDS011;5027;53.560;10.062;2022-12-20T09:18:40;12.03;;;8.30;;
9972;SDS011;5027;53.560;10.062;2022-12-20T09:21:17;10.83;;;8.43;;
9972;SDS011;5027;53.560;10.062;2022-12-20T09:23:45;11.10;;;8.53;;
9972;SDS011;5027;53.560;10.062;2022-12-20T09:26:13;10.53;;;8.53;;
9972;SDS011;5027;53.560;10.062;2022-12-20T09:28:42;12.37;;;8.37;;
9972;SDS011;5027;53.560;10.062;2022-12-20T09:31:10;10.13;;;7.87;;
9972;SDS011;5027;53.560;10.062;2022-12-20T09:33:45;11.67;;;8.60;;
9972;SDS011;5027;53.560;10.062;2022-12-20T09:36:13;10.80;;;8.63;;
9972;SDS011;5027;53.560;10.062;2022-12-20T09:38:42;9.87;;;8.27;;
9972;SDS011;5027;53.560;10.062;2022-12-20T09:43:51;9.53;;;7.90;;
9972;SDS011;5027;53.560;10.062;2022-12-20T09:46:19;10.53;;;8.07;;
9972;SDS011;5027;53.560;10.062;2022-12-20T09:48:46;9.60;;;8.47;;
9972;SDS011;5027;53.560;10.062;2022-12-20T09:56:59;10.83;;;8.13;;
9972;SDS011;5027;53.560;10.062;2022-12-20T09:59:39;10.53;;;8.23;;
9972;SDS011;5027;53.560;10.062;2022-12-20T10:02:15;9.47;;;7.77;;
9972;SDS011;5027;53.560;10.062;2022-12-20T10:14:29;8.60;;;6.70;;
9972;SDS011;5027;53.560;10.062;2022-12-20T10:17:20;8.87;;;7.37;;
9972;SDS011;5027;53.560;10.062;2022-12-20T10:22:58;9.60;;;7.37;;
9972;SDS011;5027;53.560;10.062;2022-12-20T10:25:30;8.60;;;7.60;;
9972;SDS011;5027;53.560;10.062;2022-12-20T10:27:59;10.80;;;8.13;;
9972;SDS011;5027;53.560;10.062;2022-12-20T10:30:31;9.97;;;7.60;;
9972;SDS011;5027;53.560;10.062;2022-12-20T10:33:00;9.90;;;7.97;;
9972;SDS011;5027;53.560;10.062;2022-12-20T10:35:37;11.80;;;7.70;;
9972;SDS011;5027;53.560;10.062;2022-12-20T10:38:07;14.87;;;8.60;;
9972;SDS011;5027;53.560;10.062;2022-12-20T10:40:40;9.80;;;7.43;;
9972;SDS011;5027;53.560;10.062;2022-12-20T10:43:39;8.97;;;7.40;;
9972;SDS011;5027;53.560;10.062;2022-12-20T10:46:09;10.07;;;7.80;;
9972;SDS011;5027;53.560;10.062;2022-12-20T10:48:38;9.67;;;7.40;;
9972;SDS011;5027;53.560;10.062;2022-12-20T10:53:49;9.13;;;7.13;;
9972;SDS011;5027;53.560;10.062;2022-12-20T11:01:43;10.87;;;7.30;;
9972;SDS011;5027;53.560;10.062;2022-12-20T11:04:28;8.87;;;7.17;;
9972;SDS011;5027;53.560;10.062;2022-12-20T11:06:56;8.73;;;6.90;;
9972;SDS011;5027;53.560;10.062;2022-12-20T11:09:25;10.90;;;8.30;;
9972;SDS011;5027;53.560;10.062;2022-12-20T11:14:33;11.10;;;7.40;;
9972;SDS011;5027;53.560;10.062;2022-12-20T11:23:21;8.23;;;7.10;;
9972;SDS011;5027;53.560;10.062;2022-12-20T11:31:00;8.87;;;7.27;;
9972;SDS011;5027;53.560;10.062;2022-12-20T11:39:14;12.00;;;7.00;;
9972;SDS011;5027;53.560;10.062;2022-12-20T11:42:08;11.53;;;7.17;;
9972;SDS011;5027;53.560;10.062;2022-12-20T11:44:48;8.23;;;7.13;;
9972;SDS011;5027;53.560;10.062;2022-12-20T11:50:12;11.07;;;6.57;;
9972;SDS011;5027;53.560;10.062;2022-12-20T11:52:53;8.13;;;6.33;;
9972;SDS011;5027;53.560;10.062;2022-12-20T11:55:27;7.37;;;6.53;;
9972;SDS011;5027;53.560;10.062;2022-12-20T11:58:00;6.83;;;5.53;;
9972;SDS011;5027;53.560;10.062;2022-12-20T12:00:53;9.17;;;6.93;;
9972;SDS011;5027;53.560;10.062;2022-12-20T12:03:57;7.93;;;6.27;;
9972;SDS011;5027;53.560;10.062;2022-12-20T12:06:31;8.50;;;5.80;;
9972;SDS011;5027;53.560;10.062;2022-12-20T12:12:09;8.07;;;6.13;;
9972;SDS011;5027;53.560;10.062;2022-12-20T12:14:41;8.30;;;6.20;;
9972;SDS011;5027;53.560;10.062;2022-12-20T12:17:26;6.07;;;5.30;;
9972;SDS011;5027;53.560;10.062;2022-12-20T12:20:16;6.00;;;5.40;;
9972;SDS011;5027;53.560;10.062;2022-12-20T12:26:12;8.83;;;5.13;;
9972;SDS011;5027;53.560;10.062;2022-12-20T12:28:41;7.27;;;5.77;;
9972;SDS011;5027;53.560;10.062;2022-12-20T12:31:12;8.13;;;5.13;;
9972;SDS011;5027;53.560;10.062;2022-12-20T12:33:54;7.63;;;5.20;;
9972;SDS011;5027;53.560;10.062;2022-12-20T12:36:37;5.23;;;4.50;;
9972;SDS011;5027;53.560;10.062;2022-12-20T12:42:03;7.43;;;5.43;;
9972;SDS011;5027;53.560;10.062;2022-12-20T12:45:14;10.80;;;7.37;;
9972;SDS011;5027;53.560;10.062;2022-12-20T12:47:57;6.67;;;4.63;;
9972;SDS011;5027;53.560;10.062;2022-12-20T12:50:31;8.47;;;5.90;;
9972;SDS011;5027;53.560;10.062;2022-12-20T12:53:05;6.53;;;4.87;;
9972;SDS011;5027;53.560;10.062;2022-12-20T12:55:44;7.13;;;4.80;;
9972;SDS011;5027;53.560;10.062;2022-12-20T12:58:33;8.00;;;5.37;;
9972;SDS011;5027;53.560;10.062;2022-12-20T13:01:01;9.60;;;5.47;;
9972;SDS011;5027;53.560;10.062;2022-12-20T13:14:42;7.13;;;5.90;;
9972;SDS011;5027;53.560;10.062;2022-12-20T13:19:51;7.83;;;6.40;;
9972;SDS011;5027;53.560;10.062;2022-12-20T13:22:20;10.90;;;5.37;;
9972;SDS011;5027;53.560;10.062;2022-12-20T13:24:56;11.70;;;6.33;;
9972;SDS011;5027;53.560;10.062;2022-12-20T13:27:53;9.90;;;5.80;;
9972;SDS011;5027;53.560;10.062;2022-12-20T13:33:22;9.43;;;6.47;;
9972;SDS011;5027;53.560;10.062;2022-12-20T13:35:57;9.80;;;6.40;;
9972;SDS011;5027;53.560;10.062;2022-12-20T13:46:48;10.93;;;6.70;;
9972;SDS011;5027;53.560;10.062;2022-12-20T13:49:24;7.77;;;6.00;;
9972;SDS011;5027;53.560;10.062;2022-12-20T13:54:43;13.27;;;6.73;;
9972;SDS011;5027;53.560;10.062;2022-12-20T13:57:14;7.93;;;6.27;;
9972;SDS011;5027;53.560;10.062;2022-12-20T13:59:46;10.00;;;6.37;;
9972;SDS011;5027;53.560;10.062;2022-12-20T14:02:18;8.77;;;6.33;;
9972;SDS011;5027;53.560;10.062;2022-12-20T14:05:00;12.07;;;6.23;;
9972;SDS011;5027;53.560;10.062;2022-12-20T14:07:58;9.43;;;7.00;;
9972;SDS011;5027;53.560;10.062;2022-12-20T14:10:28;9.57;;;6.50;;
9972;SDS011;5027;53.560;10.062;2022-12-20T14:12:59;11.87;;;6.30;;
9972;SDS011;5027;53.560;10.062;2022-12-20T14:15:30;8.37;;;6.17;;
9972;SDS011;5027;53.560;10.062;2022-12-20T14:18:05;9.80;;;6.30;;
9972;SDS011;5027;53.560;10.062;2022-12-20T14:20:46;9.33;;;6.70;;
9972;SDS011;5027;53.560;10.062;2022-12-20T14:23:22;11.60;;;6.23;;
9972;SDS011;5027;53.560;10.062;2022-12-20T14:26:00;9.23;;;6.53;;
9972;SDS011;5027;53.560;10.062;2022-12-20T14:28:34;9.87;;;6.13;;
9972;SDS011;5027;53.560;10.062;2022-12-20T14:31:04;9.60;;;6.93;;
9972;SDS011;5027;53.560;10.062;2022-12-20T14:33:38;9.47;;;6.63;;
9972;SDS011;5027;53.560;10.062;2022-12-20T14:36:08;10.43;;;6.57;;
9972;SDS011;5027;53.560;10.062;2022-12-20T14:38:44;9.20;;;6.53;;
9972;SDS011;5027;53.560;10.062;2022-12-20T14:41:29;9.53;;;6.30;;
9972;SDS011;5027;53.560;10.062;2022-12-20T14:46:34;10.70;;;6.10;;
9972;SDS011;5027;53.560;10.062;2022-12-20T14:49:15;9.47;;;6.70;;
9972;SDS011;5027;53.560;10.062;2022-12-20T14:51:46;8.83;;;5.90;;
9972;SDS011;5027;53.560;10.062;2022-12-20T14:54:20;9.90;;;6.43;;
9972;SDS011;5027;53.560;10.062;2022-12-20T14:57:14;10.13;;;6.93;;
9972;SDS011;5027;53.560;10.062;2022-12-20T15:02:40;10.53;;;7.00;;
9972;SDS011;5027;53.560;10.062;2022-12-20T15:05:34;7.60;;;6.80;;
9972;SDS011;5027;53.560;10.062;2022-12-20T15:10:45;8.80;;;6.20;;
9972;SDS011;5027;53.560;10.062;2022-12-20T15:16:01;8.67;;;6.40;;
9972;SDS011;5027;53.560;10.062;2022-12-20T15:18:31;9.83;;;6.57;;
9972;SDS011;5027;53.560;10.062;2022-12-20T15:20:59;9.03;;;6.33;;
9972;SDS011;5027;53.560;10.062;2022-12-20T15:23:32;9.37;;;6.60;;
9972;SDS011;5027;53.560;10.062;2022-12-20T15:25:59;9.23;;;6.60;;
9972;SDS011;5027;53.560;10.062;2022-12-20T15:28:26;9.37;;;6.87;;
9972;SDS011;5027;53.560;10.062;2022-12-20T15:30:53;8.67;;;6.70;;
9972;SDS011;5027;53.560;10.062;2022-12-20T15:33:22;9.10;;;7.07;;
9972;SDS011;5027;53.560;10.062;2022-12-20T15:35:54;11.47;;;7.00;;
9972;SDS011;5027;53.560;10.062;2022-12-20T15:38:22;10.97;;;7.03;;
9972;SDS011;5027;53.560;10.062;2022-12-20T15:41:12;7.07;;;5.83;;
9972;SDS011;5027;53.560;10.062;2022-12-20T15:43:51;10.03;;;6.53;;
9972;SDS011;5027;53.560;10.062;2022-12-20T15:46:21;7.07;;;6.20;;
9972;SDS011;5027;53.560;10.062;2022-12-20T15:48:48;9.03;;;6.63;;
9972;SDS011;5027;53.560;10.062;2022-12-20T15:51:16;9.07;;;6.33;;
9972;SDS011;5027;53.560;10.062;2022-12-20T15:53:53;7.97;;;6.43;;
9972;SDS011;5027;53.560;10.062;2022-12-20T15:56:21;8.70;;;5.80;;
9972;SDS011;5027;53.560;10.062;2022-12-20T15:58:48;10.40;;;6.37;;
9972;SDS011;5027;53.560;10.062;2022-12-20T16:01:19;8.33;;;6.30;;
9972;SDS011;5027;53.560;10.062;2022-12-20T16:03:55;10.23;;;6.70;;
9972;SDS011;5027;53.560;10.062;2022-12-20T16:06:22;8.40;;;6.60;;
9972;SDS011;5027;53.560;10.062;2022-12-20T16:08:49;8.17;;;6.77;;
9972;SDS011;5027;53.560;10.062;2022-12-20T16:11:20;11.27;;;6.27;;
9972;SDS011;5027;53.560;10.062;2022-12-20T16:13:47;7.60;;;6.03;;
9972;SDS011;5027;53.560;10.062;2022-12-20T16:16:17;8.57;;;6.23;;
9972;SDS011;5027;53.560;10.062;2022-12-20T16:18:45;7.83;;;5.63;;
9972;SDS011;5027;53.560;10.062;2022-12-20T16:23:47;9.80;;;6.57;;
9972;SDS011;5027;53.560;10.062;2022-12-20T16:26:16;10.73;;;7.40;;
9972;SDS011;5027;53.560;10.062;2022-12-20T16:28:45;11.50;;;6.60;;
9972;SDS011;5027;53.560;10.062;2022-12-20T16:31:29;8.77;;;6.43;;
9972;SDS011;5027;53.560;10.062;2022-12-20T16:34:02;9.13;;;6.27;;
9972;SDS011;5027;53.560;10.062;2022-12-20T16:36:30;7.13;;;6.33;;
9972;SDS011;5027;53.560;10.062;2022-12-20T16:38:58;8.10;;;6.53;;
9972;SDS011;5027;53.560;10.062;2022-12-20T16:41:26;18.47;;;12.77;;
9972;SDS011;5027;53.560;10.062;2022-12-20T16:43:54;8.00;;;6.70;;
9972;SDS011;5027;53.560;10.062;2022-12-20T16:46:23;12.27;;;7.50;;
9972;SDS011;5027;53.560;10.062;2022-12-20T16:48:53;10.93;;;6.60;;
9972;SDS011;5027;53.560;10.062;2022-12-20T16:51:29;8.00;;;7.10;;
9972;SDS011;5027;53.560;10.062;2022-12-20T16:54:01;13.93;;;9.47;;
9972;SDS011;5027;53.560;10.062;2022-12-20T16:56:45;10.73;;;6.97;;
9972;SDS011;5027;53.560;10.062;2022-12-20T16:59:13;8.50;;;6.97;;
9972;SDS011;5027;53.560;10.062;2022-12-20T17:01:49;8.77;;;7.03;;
9972;SDS011;5027;53.560;10.062;2022-12-20T17:04:18;10.03;;;7.33;;
9972;SDS011;5027;53.560;10.062;2022-12-20T17:06:46;8.03;;;7.13;;
9972;SDS011;5027;53.560;10.062;2022-12-20T17:09:13;11.87;;;7.10;;